sensor_id;sensor_type;location;lat;lon;timestamp;pressure;altitude;pressure_sealevel;temperature;humidity
33913;BME280;20200;52.084;5.224;2023-02-23T00:01:18;152991.0;;;16.78;51.87
33913;BME280;20200;52.084;5.224;2023-02-23T00:04:32;153071.0;;;17.09;51.03
33913;BME280;20200;52.084;5.224;2023-02-23T00:06:09;153180.0;;;17.53;49.82
33913;BME280;20200;52.084;5.224;2023-02-23T00:07:46;153152.0;;;17.43;50.14
33913;BME280;20200;52.084;5.224;2023-02-23T00:10:59;153044.0;;;17.0;51.12
33913;BME280;20200;52.084;5.224;2023-02-23T00:12:35;153097.0;;;17.2;50.9
33913;BME280;20200;52.084;5.224;2023-02-23T00:14:11;153038.0;;;16.96;51.13
33913;BME280;20200;52.084;5.224;2023-02-23T00:17:23;153012.0;;;16.86;51.47
33913;BME280;20200;52.084;5.224;2023-02-23T00:18:59;153032.0;;;16.95;51.07
33913;BME280;20200;52.084;5.224;2023-02-23T00:20:43;153048.0;;;17.02;50.89
33913;BME280;20200;52.084;5.224;2023-02-23T00:22:19;152993.0;;;16.79;51.44
33913;BME280;20200;52.084;5.224;2023-02-23T00:25:37;153082.0;;;17.14;50.64
33913;BME280;20200;52.084;5.224;2023-02-23T00:27:20;153041.0;;;16.97;50.31
33913;BME280;20200;52.084;5.224;2023-02-23T00:28:57;153082.0;;;17.14;50.55
33913;BME280;20200;52.084;5.224;2023-02-23T00:30:33;153118.0;;;17.28;49.42
33913;BME280;20200;52.084;5.224;2023-02-23T00:33:51;153180.0;;;17.53;49.38
33913;BME280;20200;52.084;5.224;2023-02-23T00:35:28;153127.0;;;17.32;49.81
33913;BME280;20200;52.084;5.224;2023-02-23T00:37:04;153209.0;;;17.64;48.98
33913;BME280;20200;52.084;5.224;2023-02-23T00:40:18;153175.0;;;17.52;49.18
33913;BME280;20200;52.084;5.224;2023-02-23T00:41:56;153144.0;;;17.39;49.09
33913;BME280;20200;52.084;5.224;2023-02-23T00:43:34;153196.0;;;17.59;48.95
33913;BME280;20200;52.084;5.224;2023-02-23T00:46:51;153224.0;;;17.7;48.75
33913;BME280;20200;52.084;5.224;2023-02-23T00:48:28;153185.0;;;17.55;48.91
33913;BME280;20200;52.084;5.224;2023-02-23T00:50:05;153090.0;;;17.18;49.4
33913;BME280;20200;52.084;5.224;2023-02-23T00:51:42;153054.0;;;17.03;49.98
33913;BME280;20200;52.084;5.224;2023-02-23T00:54:55;153103.0;;;17.22;49.58
33913;BME280;20200;52.084;5.224;2023-02-23T00:56:32;153200.0;;;17.61;48.7
33913;BME280;20200;52.084;5.224;2023-02-23T00:58:08;153162.0;;;17.46;48.87
33913;BME280;20200;52.084;5.224;2023-02-23T01:01:22;153186.0;;;17.55;48.58
33913;BME280;20200;52.084;5.224;2023-02-23T01:02:58;153168.0;;;17.48;49.0
33913;BME280;20200;52.084;5.224;2023-02-23T01:04:33;153179.0;;;17.52;48.98
33913;BME280;20200;52.084;5.224;2023-02-23T01:06:11;153132.0;;;17.34;49.23
33913;BME280;20200;52.084;5.224;2023-02-23T01:09:27;153167.0;;;17.48;48.91
33913;BME280;20200;52.084;5.224;2023-02-23T01:11:06;153156.0;;;17.43;48.92
33913;BME280;20200;52.084;5.224;2023-02-23T01:12:43;153232.0;;;17.75;48.48
33913;BME280;20200;52.084;5.224;2023-02-23T01:15:58;153187.0;;;17.56;48.68
33913;BME280;20200;52.084;5.224;2023-02-23T01:17:34;153276.0;;;17.91;47.92
33913;BME280;20200;52.084;5.224;2023-02-23T01:19:12;153196.0;;;17.59;48.61
33913;BME280;20200;52.084;5.224;2023-02-23T01:20:49;153204.0;;;17.62;48.31
33913;BME280;20200;52.084;5.224;2023-02-23T01:24:02;153022.0;;;16.9;49.69
33913;BME280;20200;52.084;5.224;2023-02-23T01:25:41;153064.0;;;17.07;49.6
33913;BME280;20200;52.084;5.224;2023-02-23T01:27:19;153068.0;;;17.09;49.62
33913;BME280;20200;52.084;5.224;2023-02-23T01:30:34;153148.0;;;17.41;48.99
33913;BME280;20200;52.084;5.224;2023-02-23T01:32:11;153143.0;;;17.38;49.02
33913;BME280;20200;52.084;5.224;2023-02-23T01:33:47;153178.0;;;17.52;48.7
33913;BME280;20200;52.084;5.224;2023-02-23T01:35:28;153216.0;;;17.68;48.48
33913;BME280;20200;52.084;5.224;2023-02-23T01:38:41;153209.0;;;17.64;48.46
33913;BME280;20200;52.084;5.224;2023-02-23T01:40:27;153242.0;;;17.77;48.01
33913;BME280;20200;52.084;5.224;2023-02-23T01:42:08;153266.0;;;17.87;48.03
33913;BME280;20200;52.084;5.224;2023-02-23T01:43:56;153229.0;;;17.72;48.03
33913;BME280;20200;52.084;5.224;2023-02-23T01:47:13;153250.0;;;17.8;47.86
33913;BME280;20200;52.084;5.224;2023-02-23T01:48:50;153262.0;;;17.86;48.02
33913;BME280;20200;52.084;5.224;2023-02-23T01:50:31;153253.0;;;17.82;47.95
33913;BME280;20200;52.084;5.224;2023-02-23T01:52:15;153208.0;;;17.64;48.37
33913;BME280;20200;52.084;5.224;2023-02-23T01:55:35;153243.0;;;17.78;48.14
33913;BME280;20200;52.084;5.224;2023-02-23T01:57:13;153266.0;;;17.87;47.79
33913;BME280;20200;52.084;5.224;2023-02-23T01:58:53;153228.0;;;17.72;48.05
33913;BME280;20200;52.084;5.224;2023-02-23T02:00:35;153289.0;;;17.96;47.83
33913;BME280;20200;52.084;5.224;2023-02-23T02:03:54;153174.0;;;17.5;48.7
33913;BME280;20200;52.084;5.224;2023-02-23T02:05:32;153217.0;;;17.68;48.59
33913;BME280;20200;52.084;5.224;2023-02-23T02:07:11;153282.0;;;17.93;47.88
33913;BME280;20200;52.084;5.224;2023-02-23T02:10:46;153096.0;;;17.2;49.24
33913;BME280;20200;52.084;5.224;2023-02-23T02:12:22;153149.0;;;17.41;48.79
33913;BME280;20200;52.084;5.224;2023-02-23T02:14:00;153136.0;;;17.36;48.92
33913;BME280;20200;52.084;5.224;2023-02-23T02:15:58;153216.0;;;17.68;48.28
33913;BME280;20200;52.084;5.224;2023-02-23T02:17:42;153196.0;;;17.59;48.52
33913;BME280;20200;52.084;5.224;2023-02-23T02:19:55;153030.0;;;16.93;49.74
33913;BME280;20200;52.084;5.224;2023-02-23T02:23:28;153060.0;;;17.05;49.85
33913;BME280;20200;52.084;5.224;2023-02-23T02:27:42;153058.0;;;17.04;50.11
33913;BME280;20200;52.084;5.224;2023-02-23T02:29:46;153161.0;;;17.45;49.03
33913;BME280;20200;52.084;5.224;2023-02-23T02:34:03;153234.0;;;17.75;48.24
33913;BME280;20200;52.084;5.224;2023-02-23T02:39:41;153166.0;;;17.47;49.08
33913;BME280;20200;52.084;5.224;2023-02-23T02:41:29;153087.0;;;17.16;49.83
33913;BME280;20200;52.084;5.224;2023-02-23T02:43:14;152976.0;;;16.72;51.1
33913;BME280;20200;52.084;5.224;2023-02-23T02:44:58;153050.0;;;17.02;50.33
33913;BME280;20200;52.084;5.224;2023-02-23T02:46:45;153179.0;;;17.52;49.19
33913;BME280;20200;52.084;5.224;2023-02-23T02:50:15;153241.0;;;17.77;48.66
33913;BME280;20200;52.084;5.224;2023-02-23T02:51:59;153209.0;;;17.64;48.69
33913;BME280;20200;52.084;5.224;2023-02-23T02:53:47;153219.0;;;17.68;48.65
33913;BME280;20200;52.084;5.224;2023-02-23T02:55:28;153262.0;;;17.86;48.42
33913;BME280;20200;52.084;5.224;2023-02-23T02:57:08;153175.0;;;17.52;48.96
33913;BME280;20200;52.084;5.224;2023-02-23T04:17:41;152952.0;;;16.62;51.78
33913;BME280;20200;52.084;5.224;2023-02-23T04:19:18;152975.0;;;16.71;51.59
33913;BME280;20200;52.084;5.224;2023-02-23T04:20:56;152922.0;;;16.5;52.2
33913;BME280;20200;52.084;5.224;2023-02-23T04:24:10;152878.0;;;16.34;52.72
33913;BME280;20200;52.084;5.224;2023-02-23T04:25:47;152884.0;;;16.36;52.61
33913;BME280;20200;52.084;5.224;2023-02-23T04:27:24;153010.0;;;16.86;51.39
33913;BME280;20200;52.084;5.224;2023-02-23T04:30:36;153043.0;;;16.98;50.67
33913;BME280;20200;52.084;5.224;2023-02-23T04:32:14;153069.0;;;17.09;50.34
33913;BME280;20200;52.084;5.224;2023-02-23T04:33:51;153008.0;;;16.84;51.09
33913;BME280;20200;52.084;5.224;2023-02-23T04:35:29;152959.0;;;16.65;51.42
33913;BME280;20200;52.084;5.224;2023-02-23T04:38:43;153094.0;;;17.2;50.22
33913;BME280;20200;52.084;5.224;2023-02-23T04:40:19;152911.0;;;16.46;51.2
33913;BME280;20200;52.084;5.224;2023-02-23T04:41:55;153068.0;;;17.09;50.65
33913;BME280;20200;52.084;5.224;2023-02-23T04:45:08;153012.0;;;16.86;51.14
33913;BME280;20200;52.084;5.224;2023-02-23T04:46:45;153112.0;;;17.27;50.49
33913;BME280;20200;52.084;5.224;2023-02-23T04:48:24;153140.0;;;17.37;50.02
33913;BME280;20200;52.084;5.224;2023-02-23T04:49:59;152973.0;;;16.7;51.12
33913;BME280;20200;52.084;5.224;2023-02-23T04:53:13;153062.0;;;17.06;50.42
33913;BME280;20200;52.084;5.224;2023-02-23T04:54:49;153003.0;;;16.84;51.22
33913;BME280;20200;52.084;5.224;2023-02-23T04:56:25;153033.0;;;16.95;50.82
33913;BME280;20200;52.084;5.224;2023-02-23T04:59:38;152977.0;;;16.72;51.48
33913;BME280;20200;52.084;5.224;2023-02-23T05:01:14;153018.0;;;16.89;50.88
33913;BME280;20200;52.084;5.224;2023-02-23T05:02:50;152950.0;;;16.61;51.57
33913;BME280;20200;52.084;5.224;2023-02-23T05:06:04;152920.0;;;16.5;51.53
33913;BME280;20200;52.084;5.224;2023-02-23T05:07:41;152953.0;;;16.63;51.41
33913;BME280;20200;52.084;5.224;2023-02-23T05:09:17;152895.0;;;16.4;52.16
33913;BME280;20200;52.084;5.224;2023-02-23T05:10:53;152927.0;;;16.52;51.75
33913;BME280;20200;52.084;5.224;2023-02-23T05:14:07;152850.0;;;16.22;52.49
33913;BME280;20200;52.084;5.224;2023-02-23T05:15:43;152992.0;;;16.78;51.29
33913;BME280;20200;52.084;5.224;2023-02-23T05:17:20;153033.0;;;16.95;50.83
33913;BME280;20200;52.084;5.224;2023-02-23T05:20:33;153079.0;;;17.13;50.43
33913;BME280;20200;52.084;5.224;2023-02-23T05:22:11;152977.0;;;16.72;50.77
33913;BME280;20200;52.084;5.224;2023-02-23T05:23:47;153072.0;;;17.11;50.45
33913;BME280;20200;52.084;5.224;2023-02-23T05:27:00;153146.0;;;17.39;49.6
33913;BME280;20200;52.084;5.224;2023-02-23T05:28:38;153108.0;;;17.25;49.74
33913;BME280;20200;52.084;5.224;2023-02-23T05:30:16;153127.0;;;17.32;49.69
33913;BME280;20200;52.084;5.224;2023-02-23T05:31:52;153185.0;;;17.55;49.26
33913;BME280;20200;52.084;5.224;2023-02-23T05:35:05;153244.0;;;17.78;48.73
33913;BME280;20200;52.084;5.224;2023-02-23T05:36:41;153166.0;;;17.47;49.32
33913;BME280;20200;52.084;5.224;2023-02-23T05:38:19;153120.0;;;17.29;49.47
33913;BME280;20200;52.084;5.224;2023-02-23T05:41:33;153178.0;;;17.52;49.07
33913;BME280;20200;52.084;5.224;2023-02-23T05:43:09;153159.0;;;17.45;49.28
33913;BME280;20200;52.084;5.224;2023-02-23T05:44:45;153160.0;;;17.45;49.31
33913;BME280;20200;52.084;5.224;2023-02-23T05:48:01;153194.0;;;17.59;48.96
33913;BME280;20200;52.084;5.224;2023-02-23T05:49:38;153169.0;;;17.5;49.38
33913;BME280;20200;52.084;5.224;2023-02-23T05:51:15;153119.0;;;17.28;49.25
33913;BME280;20200;52.084;5.224;2023-02-23T05:52:52;153095.0;;;17.2;49.49
33913;BME280;20200;52.084;5.224;2023-02-23T05:56:07;153129.0;;;17.34;49.5
33913;BME280;20200;52.084;5.224;2023-02-23T05:57:46;153191.0;;;17.57;48.84
33913;BME280;20200;52.084;5.224;2023-02-23T05:59:22;153058.0;;;17.04;49.52
33913;BME280;20200;52.084;5.224;2023-02-23T06:02:35;153077.0;;;17.12;49.66
33913;BME280;20200;52.084;5.224;2023-02-23T06:04:12;153129.0;;;17.34;49.35
33913;BME280;20200;52.084;5.224;2023-02-23T06:05:49;153177.0;;;17.52;48.96
33913;BME280;20200;52.084;5.224;2023-02-23T06:07:25;153173.0;;;17.5;48.94
33913;BME280;20200;52.084;5.224;2023-02-23T06:10:39;153230.0;;;17.73;48.37
33913;BME280;20200;52.084;5.224;2023-02-23T06:12:15;153124.0;;;17.31;48.91
33913;BME280;20200;52.084;5.224;2023-02-23T06:13:51;153161.0;;;17.45;49.1
33913;BME280;20200;52.084;5.224;2023-02-23T06:17:04;152996.0;;;16.8;50.26
33913;BME280;20200;52.084;5.224;2023-02-23T06:18:42;152957.0;;;16.64;50.68
33913;BME280;20200;52.084;5.224;2023-02-23T06:20:18;152993.0;;;16.78;50.65
33913;BME280;20200;52.084;5.224;2023-02-23T06:23:31;153077.0;;;17.12;49.79
33913;BME280;20200;52.084;5.224;2023-02-23T06:25:11;153014.0;;;16.87;50.38
33913;BME280;20200;52.084;5.224;2023-02-23T06:26:48;153119.0;;;17.29;49.39
33913;BME280;20200;52.084;5.224;2023-02-23T06:28:26;153234.0;;;17.75;48.36
33913;BME280;20200;52.084;5.224;2023-02-23T06:31:39;153039.0;;;16.97;49.76
33913;BME280;20200;52.084;5.224;2023-02-23T06:33:16;153012.0;;;16.86;50.23
33913;BME280;20200;52.084;5.224;2023-02-23T06:34:53;153015.0;;;16.87;50.17
33913;BME280;20200;52.084;5.224;2023-02-23T06:38:05;153073.0;;;17.11;49.64
33913;BME280;20200;52.084;5.224;2023-02-23T06:39:41;153128.0;;;17.32;49.17
33913;BME280;20200;52.084;5.224;2023-02-23T06:41:17;153146.0;;;17.39;49.26
33913;BME280;20200;52.084;5.224;2023-02-23T06:44:29;153148.0;;;17.41;49.16
33913;BME280;20200;52.084;5.224;2023-02-23T06:46:06;153221.0;;;17.7;48.43
33913;BME280;20200;52.084;5.224;2023-02-23T06:47:43;153175.0;;;17.52;48.77
33913;BME280;20200;52.084;5.224;2023-02-23T06:49:20;153198.0;;;17.61;48.81
33913;BME280;20200;52.084;5.224;2023-02-23T06:52:34;153176.0;;;17.52;48.88
33913;BME280;20200;52.084;5.224;2023-02-23T06:54:10;153204.0;;;17.62;48.66
33913;BME280;20200;52.084;5.224;2023-02-23T06:55:46;153157.0;;;17.45;48.65
33913;BME280;20200;52.084;5.224;2023-02-23T06:58:59;153191.0;;;17.57;48.57
33913;BME280;20200;52.084;5.224;2023-02-23T07:00:35;153198.0;;;17.61;48.62
33913;BME280;20200;52.084;5.224;2023-02-23T07:02:12;153141.0;;;17.37;49.12
33913;BME280;20200;52.084;5.224;2023-02-23T07:05:24;153105.0;;;17.23;49.37
33913;BME280;20200;52.084;5.224;2023-02-23T07:07:01;153141.0;;;17.37;49.39
33913;BME280;20200;52.084;5.224;2023-02-23T07:08:38;153102.0;;;17.22;49.65
33913;BME280;20200;52.084;5.224;2023-02-23T07:10:14;153172.0;;;17.5;48.81
33913;BME280;20200;52.084;5.224;2023-02-23T07:13:27;153134.0;;;17.36;49.25
33913;BME280;20200;52.084;5.224;2023-02-23T07:15:04;153115.0;;;17.27;49.36
33913;BME280;20200;52.084;5.224;2023-02-23T07:16:40;153059.0;;;17.05;50.05
33913;BME280;20200;52.084;5.224;2023-02-23T07:19:53;153062.0;;;17.06;49.78
33913;BME280;20200;52.084;5.224;2023-02-23T07:21:31;152872.0;;;16.31;51.35
33913;BME280;20200;52.084;5.224;2023-02-23T07:23:08;153099.0;;;17.21;49.8
33913;BME280;20200;52.084;5.224;2023-02-23T07:26:22;152996.0;;;16.8;50.68
33913;BME280;20200;52.084;5.224;2023-02-23T07:27:59;152955.0;;;16.63;50.91
33913;BME280;20200;52.084;5.224;2023-02-23T07:29:36;153026.0;;;16.93;50.34
33913;BME280;20200;52.084;5.224;2023-02-23T07:31:12;153013.0;;;16.87;50.5
33913;BME280;20200;52.084;5.224;2023-02-23T07:34:27;152868.0;;;16.29;51.62
33913;BME280;20200;52.084;5.224;2023-02-23T07:36:03;152816.0;;;16.09;52.36
33913;BME280;20200;52.084;5.224;2023-02-23T07:37:41;152782.0;;;15.95;52.76
33913;BME280;20200;52.084;5.224;2023-02-23T07:40:54;152843.0;;;16.2;52.43
33913;BME280;20200;52.084;5.224;2023-02-23T07:42:30;152829.0;;;16.13;52.18
33913;BME280;20200;52.084;5.224;2023-02-23T07:44:06;152848.0;;;16.21;52.46
33913;BME280;20200;52.084;5.224;2023-02-23T07:45:42;152916.0;;;16.48;51.76
33913;BME280;20200;52.084;5.224;2023-02-23T07:48:55;152767.0;;;15.89;53.13
33913;BME280;20200;52.084;5.224;2023-02-23T07:50:32;152943.0;;;16.59;51.37
33913;BME280;20200;52.084;5.224;2023-02-23T07:52:08;152855.0;;;16.25;52.2
33913;BME280;20200;52.084;5.224;2023-02-23T07:55:21;152870.0;;;16.3;52.13
33913;BME280;20200;52.084;5.224;2023-02-23T07:56:58;152787.0;;;15.97;52.95
33913;BME280;20200;52.084;5.224;2023-02-23T07:58:34;152839.0;;;16.18;52.49
33913;BME280;20200;52.084;5.224;2023-02-23T08:01:50;152920.0;;;16.5;51.57
33913;BME280;20200;52.084;5.224;2023-02-23T08:03:27;153000.0;;;16.81;50.91
33913;BME280;20200;52.084;5.224;2023-02-23T08:05:05;152877.0;;;16.34;52.0
33913;BME280;20200;52.084;5.224;2023-02-23T08:06:41;152909.0;;;16.45;51.86
33913;BME280;20200;52.084;5.224;2023-02-23T08:09:54;152887.0;;;16.36;52.01
33913;BME280;20200;52.084;5.224;2023-02-23T08:11:31;152934.0;;;16.55;51.63
33913;BME280;20200;52.084;5.224;2023-02-23T08:13:07;152918.0;;;16.5;51.95
33913;BME280;20200;52.084;5.224;2023-02-23T08:16:19;152845.0;;;16.2;52.86
33913;BME280;20200;52.084;5.224;2023-02-23T08:17:55;152738.0;;;15.77;53.65
33913;BME280;20200;52.084;5.224;2023-02-23T08:19:33;152967.0;;;16.68;51.71
33913;BME280;20200;52.084;5.224;2023-02-23T08:22:46;152815.0;;;16.09;52.82
33913;BME280;20200;52.084;5.224;2023-02-23T08:24:22;152851.0;;;16.22;52.92
33913;BME280;20200;52.084;5.224;2023-02-23T08:26:01;152664.0;;;15.48;54.62
33913;BME280;20200;52.084;5.224;2023-02-23T08:27:37;152866.0;;;16.28;52.6
33913;BME280;20200;52.084;5.224;2023-02-23T08:30:52;152845.0;;;16.2;53.14
33913;BME280;20200;52.084;5.224;2023-02-23T08:32:32;152804.0;;;16.03;53.42
33913;BME280;20200;52.084;5.224;2023-02-23T08:34:09;152753.0;;;15.83;53.84
33913;BME280;20200;52.084;5.224;2023-02-23T08:37:22;152793.0;;;15.99;53.89
33913;BME280;20200;52.084;5.224;2023-02-23T08:38:59;152932.0;;;16.54;52.36
33913;BME280;20200;52.084;5.224;2023-02-23T08:40:36;153048.0;;;17.02;51.09
33913;BME280;20200;52.084;5.224;2023-02-23T08:42:13;153004.0;;;16.84;51.56
33913;BME280;20200;52.084;5.224;2023-02-23T08:45:28;153055.0;;;17.03;51.32
33913;BME280;20200;52.084;5.224;2023-02-23T08:47:05;153191.0;;;17.57;50.05
33913;BME280;20200;52.084;5.224;2023-02-23T08:48:41;153018.0;;;16.89;51.3
33913;BME280;20200;52.084;5.224;2023-02-23T08:51:53;153064.0;;;17.07;51.06
33913;BME280;20200;52.084;5.224;2023-02-23T08:53:30;153082.0;;;17.14;50.75
33913;BME280;20200;52.084;5.224;2023-02-23T08:55:07;152887.0;;;16.37;52.33
33913;BME280;20200;52.084;5.224;2023-02-23T08:58:20;152975.0;;;16.71;51.67
33913;BME280;20200;52.084;5.224;2023-02-23T08:59:57;152966.0;;;16.68;51.61
33913;BME280;20200;52.084;5.224;2023-02-23T09:01:33;153025.0;;;16.91;51.28
33913;BME280;20200;52.084;5.224;2023-02-23T09:03:09;152966.0;;;16.68;51.62
33913;BME280;20200;52.084;5.224;2023-02-23T09:06:24;152711.0;;;15.66;53.49
33913;BME280;20200;52.084;5.224;2023-02-23T09:08:00;152900.0;;;16.41;52.09
33913;BME280;20200;52.084;5.224;2023-02-23T09:09:37;153032.0;;;16.95;51.14
33913;BME280;20200;52.084;5.224;2023-02-23T09:12:49;152931.0;;;16.54;51.68
33913;BME280;20200;52.084;5.224;2023-02-23T09:14:26;152781.0;;;15.94;53.56
33913;BME280;20200;52.084;5.224;2023-02-23T09:16:04;153043.0;;;16.98;51.19
33913;BME280;20200;52.084;5.224;2023-02-23T09:19:20;152918.0;;;16.5;52.06
33913;BME280;20200;52.084;5.224;2023-02-23T09:20:57;152900.0;;;16.43;51.91
33913;BME280;20200;52.084;5.224;2023-02-23T09:22:34;152875.0;;;16.32;52.66
33913;BME280;20200;52.084;5.224;2023-02-23T09:24:11;152991.0;;;16.78;51.79
33913;BME280;20200;52.084;5.224;2023-02-23T09:27:23;152955.0;;;16.63;51.92
33913;BME280;20200;52.084;5.224;2023-02-23T09:29:00;153032.0;;;16.95;51.22
33913;BME280;20200;52.084;5.224;2023-02-23T09:30:38;152921.0;;;16.5;52.22
33913;BME280;20200;52.084;5.224;2023-02-23T09:33:52;152973.0;;;16.71;51.53
33913;BME280;20200;52.084;5.224;2023-02-23T09:35:29;153099.0;;;17.21;50.89
33913;BME280;20200;52.084;5.224;2023-02-23T09:37:05;153149.0;;;17.41;50.08
33913;BME280;20200;52.084;5.224;2023-02-23T09:38:41;152966.0;;;16.68;51.32
33913;BME280;20200;52.084;5.224;2023-02-23T09:42:07;152934.0;;;16.55;51.73
33913;BME280;20200;52.084;5.224;2023-02-23T09:43:55;152967.0;;;16.68;51.32
33913;BME280;20200;52.084;5.224;2023-02-23T09:45:38;152974.0;;;16.71;51.61
33913;BME280;20200;52.084;5.224;2023-02-23T09:47:27;152994.0;;;16.79;51.23
33913;BME280;20200;52.084;5.224;2023-02-23T09:50:52;152950.0;;;16.61;51.22
33913;BME280;20200;52.084;5.224;2023-02-23T09:52:37;152850.0;;;16.22;52.3
33913;BME280;20200;52.084;5.224;2023-02-23T09:54:16;152791.0;;;15.98;53.14
33913;BME280;20200;52.084;5.224;2023-02-23T09:55:55;152784.0;;;15.95;52.8
33913;BME280;20200;52.084;5.224;2023-02-23T09:57:37;152751.0;;;15.82;53.41
33913;BME280;20200;52.084;5.224;2023-02-23T10:02:07;152877.0;;;16.32;52.18
33913;BME280;20200;52.084;5.224;2023-02-23T10:03:57;152782.0;;;15.95;53.1
33913;BME280;20200;52.084;5.224;2023-02-23T10:07:22;152647.0;;;15.41;53.62
33913;BME280;20200;52.084;5.224;2023-02-23T10:09:13;152893.0;;;16.39;51.91
33913;BME280;20200;52.084;5.224;2023-02-23T10:11:00;152795.0;;;16.0;52.13
33913;BME280;20200;52.084;5.224;2023-02-23T10:12:51;152688.0;;;15.58;53.84
33913;BME280;20200;52.084;5.224;2023-02-23T10:14:46;152813.0;;;16.07;52.6
33913;BME280;20200;52.084;5.224;2023-02-23T10:16:43;152800.0;;;16.02;52.72
33913;BME280;20200;52.084;5.224;2023-02-23T10:18:36;152733.0;;;15.75;53.11
33913;BME280;20200;52.084;5.224;2023-02-23T10:22:03;152798.0;;;16.02;52.51
33913;BME280;20200;52.084;5.224;2023-02-23T10:23:46;152798.0;;;16.02;52.57
33913;BME280;20200;52.084;5.224;2023-02-23T10:25:27;152859.0;;;16.25;51.77
33913;BME280;20200;52.084;5.224;2023-02-23T10:27:08;152857.0;;;16.25;51.71
33913;BME280;20200;52.084;5.224;2023-02-23T10:30:31;152717.0;;;15.69;53.23
33913;BME280;20200;52.084;5.224;2023-02-23T10:32:14;152875.0;;;16.32;51.82
33913;BME280;20200;52.084;5.224;2023-02-23T10:33:57;152690.0;;;15.58;53.11
33913;BME280;20200;52.084;5.224;2023-02-23T10:35:36;152862.0;;;16.27;51.72
33913;BME280;20200;52.084;5.224;2023-02-23T10:38:51;152769.0;;;15.9;52.14
33913;BME280;20200;52.084;5.224;2023-02-23T10:40:31;152763.0;;;15.87;51.85
33913;BME280;20200;52.084;5.224;2023-02-23T10:42:14;152944.0;;;16.59;50.53
33913;BME280;20200;52.084;5.224;2023-02-23T10:43:52;152782.0;;;15.95;51.66
33913;BME280;20200;52.084;5.224;2023-02-23T10:47:13;152768.0;;;15.89;51.79
33913;BME280;20200;52.084;5.224;2023-02-23T10:48:51;152902.0;;;16.43;50.41
33913;BME280;20200;52.084;5.224;2023-02-23T10:50:31;152843.0;;;16.2;50.66
33913;BME280;20200;52.084;5.224;2023-02-23T10:52:22;152882.0;;;16.34;50.36
33913;BME280;20200;52.084;5.224;2023-02-23T10:54:33;152674.0;;;15.52;51.84
33913;BME280;20200;52.084;5.224;2023-02-23T10:56:11;152827.0;;;16.13;50.9
33913;BME280;20200;52.084;5.224;2023-02-23T10:59:40;152860.0;;;16.27;50.81
33913;BME280;20200;52.084;5.224;2023-02-23T11:01:38;152936.0;;;16.56;50.16
33913;BME280;20200;52.084;5.224;2023-02-23T11:03:22;152993.0;;;16.79;49.34
33913;BME280;20200;52.084;5.224;2023-02-23T11:05:01;153013.0;;;16.87;48.66
33913;BME280;20200;52.084;5.224;2023-02-23T11:06:42;153156.0;;;17.43;47.91
33913;BME280;20200;52.084;5.224;2023-02-23T11:10:24;153144.0;;;17.39;47.44
33913;BME280;20200;52.084;5.224;2023-02-23T11:12:03;153159.0;;;17.45;47.07
33913;BME280;20200;52.084;5.224;2023-02-23T11:13:55;153337.0;;;18.16;46.3
33913;BME280;20200;52.084;5.224;2023-02-23T11:15:33;153273.0;;;17.91;46.32
33913;BME280;20200;52.084;5.224;2023-02-23T11:20:54;153277.0;;;17.91;45.65
33913;BME280;20200;52.084;5.224;2023-02-23T11:22:34;153223.0;;;17.7;45.49
33913;BME280;20200;52.084;5.224;2023-02-23T11:24:17;153273.0;;;17.91;45.11
33913;BME280;20200;52.084;5.224;2023-02-23T11:26:01;153103.0;;;17.22;45.29
33913;BME280;20200;52.084;5.224;2023-02-23T11:27:44;153109.0;;;17.25;44.45
33913;BME280;20200;52.084;5.224;2023-02-23T11:31:13;153103.0;;;17.22;45.23
33913;BME280;20200;52.084;5.224;2023-02-23T11:32:53;153037.0;;;16.96;46.02
33913;BME280;20200;52.084;5.224;2023-02-23T11:34:33;152898.0;;;16.41;46.36
33913;BME280;20200;52.084;5.224;2023-02-23T11:36:16;153064.0;;;17.07;45.83
33913;BME280;20200;52.084;5.224;2023-02-23T11:39:29;152918.0;;;16.5;46.34
33913;BME280;20200;52.084;5.224;2023-02-23T11:41:19;152997.0;;;16.8;46.07
33913;BME280;20200;52.084;5.224;2023-02-23T11:43:06;152887.0;;;16.37;47.71
33913;BME280;20200;52.084;5.224;2023-02-23T11:44:49;152950.0;;;16.62;48.25
33913;BME280;20200;52.084;5.224;2023-02-23T11:46:27;152750.0;;;15.82;50.08
33913;BME280;20200;52.084;5.224;2023-02-23T11:49:43;152834.0;;;16.16;49.62
33913;BME280;20200;52.084;5.224;2023-02-23T11:51:23;152846.0;;;16.2;49.42
33913;BME280;20200;52.084;5.224;2023-02-23T11:53:03;152887.0;;;16.37;49.01
33913;BME280;20200;52.084;5.224;2023-02-23T11:54:48;152764.0;;;15.88;49.92
33913;BME280;20200;52.084;5.224;2023-02-23T11:58:09;152929.0;;;16.53;48.68
33913;BME280;20200;52.084;5.224;2023-02-23T11:59:58;152835.0;;;16.16;49.0
33913;BME280;20200;52.084;5.224;2023-02-23T12:01:39;152930.0;;;16.54;48.56
33913;BME280;20200;52.084;5.224;2023-02-23T12:03:20;152999.0;;;16.81;47.95
33913;BME280;20200;52.084;5.224;2023-02-23T12:06:44;152910.0;;;16.46;48.81
33913;BME280;20200;52.084;5.224;2023-02-23T12:08:28;152905.0;;;16.43;48.55
33913;BME280;20200;52.084;5.224;2023-02-23T12:10:14;152942.0;;;16.59;48.53
33913;BME280;20200;52.084;5.224;2023-02-23T12:11:58;152950.0;;;16.62;48.57
33913;BME280;20200;52.084;5.224;2023-02-23T12:13:42;152907.0;;;16.45;49.01
33913;BME280;20200;52.084;5.224;2023-02-23T12:17:12;153140.0;;;17.37;47.16
33913;BME280;20200;52.084;5.224;2023-02-23T12:18:55;153069.0;;;17.09;47.95
33913;BME280;20200;52.084;5.224;2023-02-23T12:20:40;153040.0;;;16.97;47.94
33913;BME280;20200;52.084;5.224;2023-02-23T12:22:22;153053.0;;;17.02;47.42
33913;BME280;20200;52.084;5.224;2023-02-23T12:24:10;152993.0;;;16.78;48.45
33913;BME280;20200;52.084;5.224;2023-02-23T12:26:08;152886.0;;;16.36;49.31
33913;BME280;20200;52.084;5.224;2023-02-23T12:29:35;152923.0;;;16.52;48.92
33913;BME280;20200;52.084;5.224;2023-02-23T12:31:21;153062.0;;;17.06;48.22
33913;BME280;20200;52.084;5.224;2023-02-23T12:33:04;153011.0;;;16.86;48.81
33913;BME280;20200;52.084;5.224;2023-02-23T12:34:50;153052.0;;;17.02;48.35
33913;BME280;20200;52.084;5.224;2023-02-23T12:38:20;153053.0;;;17.03;48.13